Time;durP1;ratioP1;P1;durP2;ratioP2;P2;SDS_P1;SDS_P2;PMS_P1;PMS_P2;Temp;Humidity;BMP_temperature;BMP_pressure;BME280_temperature;BME280_humidity;BME280_pressure;Samples;Min_cycle;Max_cycle;Signal;HPM_P1;HPM_P2
2021/10/07 00:02:22;;;;;;;3.83;1.27;;;;;;;14.81;85.63;99707.19;5093607;28;20036;-74
2021/10/07 00:04:51;;;;;;;2.42;1.00;;;;;;;14.69;85.56;99696.38;5094050;28;20429;-73
2021/10/07 00:07:28;;;;;;;3.97;1.40;;;;;;;14.77;86.23;99697.19;5093396;28;20101;-75
2021/10/07 00:09:57;;;;;;;2.28;1.08;;;;;;;14.87;87.27;99707.56;5093312;28;20070;-73
2021/10/07 00:12:22;;;;;;;3.42;1.58;;;;;;;14.91;88.60;99708.34;5092817;28;20028;-74
2021/10/07 00:14:54;;;;;;;3.20;1.50;;;;;;;14.98;87.67;99707.53;5093349;28;20521;-74
2021/10/07 00:17:22;;;;;;;3.80;2.20;;;;;;;14.97;88.13;99695.53;5093593;28;20454;-73
2021/10/07 00:19:51;;;;;;;2.83;2.20;;;;;;;15.01;88.42;99679.50;5093236;28;20020;-73
2021/10/07 00:22:20;;;;;;;5.43;1.90;;;;;;;15.01;88.39;99673.09;5092930;28;20122;-73
2021/10/07 00:24:46;;;;;;;2.42;1.55;;;;;;;14.95;87.41;99675.50;5093671;28;20020;-73
2021/10/07 00:27:14;;;;;;;3.03;1.50;;;;;;;14.97;86.76;99664.72;5093382;28;20127;-72
2021/10/07 00:29:47;;;;;;;4.55;1.55;;;;;;;14.88;86.76;99664.34;5093528;28;20173;-73
2021/10/07 00:32:19;;;;;;;4.57;1.30;;;;;;;14.91;87.45;99669.13;5093035;28;20165;-73
2021/10/07 00:34:57;;;;;;;1.20;1.10;;;;;;;14.95;86.28;99653.09;5093458;28;20212;-73
2021/10/07 00:40:07;;;;;;;3.28;2.20;;;;;;;14.85;86.67;99645.53;5094769;28;20039;-73
2021/10/07 00:42:36;;;;;;;4.00;2.00;;;;;;;14.79;86.24;99649.97;5089795;28;20028;-73
2021/10/07 00:45:07;;;;;;;3.28;1.75;;;;;;;14.81;85.89;99630.75;5094297;28;20479;-73
2021/10/07 00:47:37;;;;;;;1.77;1.15;;;;;;;14.82;85.94;99632.34;5092781;28;20036;-73
2021/10/07 00:50:08;;;;;;;3.28;1.63;;;;;;;14.88;85.48;99636.34;5092575;28;20119;-73
2021/10/07 00:52:34;;;;;;;3.60;1.50;;;;;;;14.92;84.43;99625.91;5093211;28;20100;-72
2021/10/07 00:55:00;;;;;;;5.13;2.85;;;;;;;14.84;84.65;99621.53;5093166;28;20522;-73
2021/10/07 00:57:31;;;;;;;3.85;1.90;;;;;;;14.86;84.26;99616.31;5092546;28;20363;-72
2021/10/07 01:00:04;;;;;;;5.50;2.08;;;;;;;14.78;84.30;99615.56;5093092;28;20024;-72
2021/10/07 01:02:35;;;;;;;4.03;1.52;;;;;;;14.72;83.92;99605.19;5092584;28;20060;-73
2021/10/07 01:05:01;;;;;;;2.65;1.52;;;;;;;14.62;83.49;99599.19;5093353;28;20028;-73
2021/10/07 01:07:29;;;;;;;5.95;2.63;;;;;;;14.79;83.95;99607.94;5092077;28;20414;-73
2021/10/07 01:09:58;;;;;;;5.03;2.47;;;;;;;14.79;83.11;99594.75;5092401;28;20020;-74
2021/10/07 01:12:29;;;;;;;4.93;2.38;;;;;;;14.80;82.35;99592.75;5092500;28;20043;-74
2021/10/07 01:14:58;;;;;;;3.08;2.22;;;;;;;14.68;83.29;99580.78;5092724;28;20032;-72
2021/10/07 01:17:31;;;;;;;4.10;1.40;;;;;;;14.54;82.12;99575.25;5092350;28;20466;-73
2021/10/07 01:20:00;;;;;;;2.95;1.40;;;;;;;14.53;82.39;99559.63;5092893;28;20417;-72
2021/10/07 01:22:28;;;;;;;3.35;1.80;;;;;;;14.65;81.62;99567.59;5092612;28;20036;-73
2021/10/07 01:24:55;;;;;;;7.68;2.78;;;;;;;14.76;81.67;99558.38;5075498;28;20081;-72
2021/10/07 01:27:34;;;;;;;2.92;1.45;;;;;;;14.61;79.32;99550.00;5093841;28;20040;-73
2021/10/07 01:30:11;;;;;;;5.25;1.65;;;;;;;14.59;82.34;99546.81;5093385;28;20089;-73
2021/10/07 01:32:40;;;;;;;4.00;1.33;;;;;;;14.62;82.88;99543.22;5092804;28;20024;-73
2021/10/07 01:35:12;;;;;;;3.40;1.65;;;;;;;14.55;81.85;99542.44;5092210;28;20020;-72
2021/10/07 01:37:40;;;;;;;4.10;1.45;;;;;;;14.58;81.66;99533.22;5092500;28;20035;-73
2021/10/07 01:40:11;;;;;;;3.90;1.58;;;;;;;14.53;82.52;99528.84;5092387;28;20545;-73
2021/10/07 01:42:43;;;;;;;2.33;1.65;;;;;;;14.50;80.86;99515.66;5092381;28;20444;-74
2021/10/07 01:45:15;;;;;;;5.45;1.80;;;;;;;14.62;81.27;99520.81;5092142;28;20115;-73
2021/10/07 01:47:45;;;;;;;2.53;1.20;;;;;;;14.71;81.24;99516.78;5092414;28;20458;-74
2021/10/07 01:50:14;;;;;;;4.30;1.38;;;;;;;14.71;80.89;99511.19;5091939;28;20016;-72
2021/10/07 01:52:41;;;;;;;1.67;1.13;;;;;;;14.67;80.84;99509.19;5091962;28;20025;-74
2021/10/07 01:55:10;;;;;;;4.85;1.25;;;;;;;14.85;79.69;99499.91;5092011;28;20103;-73
2021/10/07 01:57:43;;;;;;;5.35;1.77;;;;;;;14.90;79.81;99505.06;5092006;28;20074;-73
2021/10/07 02:00:15;;;;;;;3.72;1.48;;;;;;;14.81;79.86;99496.34;5092563;28;20370;-73
2021/10/07 02:02:40;;;;;;;2.97;1.52;;;;;;;14.90;79.91;99502.28;5092270;28;20032;-73
2021/10/07 02:05:07;;;;;;;4.50;1.65;;;;;;;14.79;79.60;99496.72;5092311;28;20020;-73
2021/10/07 02:07:38;;;;;;;4.72;2.10;;;;;;;14.80;79.62;99494.72;5091676;28;20052;-73
2021/10/07 02:10:09;;;;;;;15.57;7.95;;;;;;;14.68;80.41;99487.59;5093589;28;20032;-74
2021/10/07 02:12:38;;;;;;;42.30;24.75;;;;;;;14.67;79.95;99528.78;5091562;28;20121;-73
2021/10/07 02:15:10;;;;;;;37.22;23.58;;;;;;;14.72;80.41;99554.78;5092046;28;20110;-74
2021/10/07 02:17:39;;;;;;;36.88;26.05;;;;;;;14.82;80.55;99559.53;5092366;28;20020;-74
2021/10/07 02:20:08;;;;;;;29.63;19.08;;;;;;;14.75;81.12;99554.75;5092665;28;20031;-73
2021/10/07 02:22:38;;;;;;;3.67;1.90;;;;;;;14.81;78.86;99538.34;5092486;28;20032;-72
2021/10/07 02:25:07;;;;;;;3.30;2.22;;;;;;;14.70;79.65;99526.38;5092777;28;20478;-73
2021/10/07 02:27:36;;;;;;;3.42;2.10;;;;;;;14.58;79.65;99539.63;5092808;28;20426;-72
2021/10/07 02:30:11;;;;;;;3.50;2.55;;;;;;;14.63;80.15;99547.59;5092127;28;20039;-72
2021/10/07 02:32:39;;;;;;;2.67;1.02;;;;;;;14.51;80.71;99544.47;5092515;28;20109;-72
2021/10/07 02:35:08;;;;;;;4.72;2.97;;;;;;;14.36;81.45;99552.06;5092161;28;20032;-72
2021/10/07 02:37:40;;;;;;;3.72;2.28;;;;;;;14.26;81.22;99539.69;5096579;28;20020;-72
2021/10/07 02:40:10;;;;;;;4.30;1.17;;;;;;;14.23;81.55;99546.09;5095242;28;20036;-72
2021/10/07 02:42:41;;;;;;;3.60;1.77;;;;;;;14.27;82.36;99552.47;5095413;28;20032;-71
2021/10/07 02:45:12;;;;;;;5.50;1.08;;;;;;;14.32;77.17;99514.88;5095216;28;20028;-72
2021/10/07 02:47:41;;;;;;;3.90;1.27;;;;;;;14.31;78.29;99518.88;5096029;28;20358;-72
2021/10/07 02:50:09;;;;;;;2.08;0.77;;;;;;;14.32;78.87;99520.47;5095036;28;20028;-72
2021/10/07 02:52:35;;;;;;;2.80;0.98;;;;;;;14.28;81.64;99519.72;5095325;28;20427;-72
2021/10/07 02:55:01;;;;;;;1.40;0.98;;;;;;;14.13;82.50;99514.16;5094558;28;20039;-72
2021/10/07 02:57:27;;;;;;;2.42;0.90;;;;;;;14.08;82.19;99517.34;5094956;28;20089;-73
2021/10/07 02:59:52;;;;;;;2.67;1.90;;;;;;;14.12;83.82;99518.16;5095620;28;20378;-73
2021/10/07 03:02:21;;;;;;;3.17;2.00;;;;;;;14.06;84.12;99514.16;5095043;28;20502;-74
2021/10/07 03:04:52;;;;;;;1.30;1.20;;;;;;;14.16;84.63;99507.72;5094777;28;20036;-73
2021/10/07 03:07:21;;;;;;;1.17;0.80;;;;;;;13.90;84.47;99510.97;5094560;28;20126;-72
2021/10/07 03:09:47;;;;;;;2.03;0.80;;;;;;;13.78;84.01;99516.97;5095349;28;20028;-72
2021/10/07 03:12:13;;;;;;;1.75;0.80;;;;;;;13.70;84.36;99518.19;5094574;28;20028;-73
2021/10/07 03:14:42;;;;;;;2.45;0.90;;;;;;;13.73;84.66;99511.78;5094346;28;20028;-73
2021/10/07 03:17:11;;;;;;;2.00;0.70;;;;;;;13.73;84.14;99522.97;5096225;28;20427;-73
2021/10/07 03:19:40;;;;;;;3.58;0.82;;;;;;;13.80;84.62;99517.41;5095165;28;20020;-73
2021/10/07 03:22:09;;;;;;;2.05;0.55;;;;;;;13.77;84.12;99513.41;5094623;28;20036;-73
2021/10/07 03:24:40;;;;;;;0.75;0.70;;;;;;;13.81;84.04;99510.59;5094351;28;20031;-73
2021/10/07 03:27:06;;;;;;;2.75;0.82;;;;;;;13.76;84.07;99511.81;5094240;28;20119;-73
2021/10/07 03:29:37;;;;;;;3.78;1.05;;;;;;;13.83;84.96;99511.78;5094104;28;20157;-73
2021/10/07 03:32:04;;;;;;;1.25;0.73;;;;;;;13.81;84.81;99507.81;5094200;28;20032;-73
2021/10/07 03:34:35;;;;;;;3.13;1.30;;;;;;;13.80;84.85;99506.22;5094025;28;20114;-72
2021/10/07 03:37:04;;;;;;;3.22;1.00;;;;;;;13.78;84.72;99500.22;5093613;28;20036;-75
2021/10/07 03:39:35;;;;;;;2.40;1.42;;;;;;;13.85;85.47;99492.63;5094056;28;20056;-74
2021/10/07 03:42:03;;;;;;;2.53;1.20;;;;;;;13.84;84.87;99502.19;5094004;28;20042;-75
2021/10/07 03:44:32;;;;;;;4.25;1.27;;;;;;;13.86;84.69;99496.22;5094190;28;20474;-73
2021/10/07 03:46:57;;;;;;;2.47;1.73;;;;;;;13.96;84.94;99498.19;5093944;28;20374;-73
2021/10/07 03:49:29;;;;;;;5.80;5.15;;;;;;;14.02;84.77;99498.59;5094136;28;20024;-73
2021/10/07 03:51:54;;;;;;;4.85;3.83;;;;;;;13.97;84.70;99494.19;5094070;28;20040;-72
2021/10/07 03:54:25;;;;;;;3.30;2.58;;;;;;;13.90;85.28;99483.00;5093872;28;20066;-73
2021/10/07 03:56:54;;;;;;;6.05;3.63;;;;;;;13.90;86.11;99499.78;5094274;28;20024;-72
2021/10/07 03:59:22;;;;;;;4.85;1.60;;;;;;;14.03;85.01;99487.00;5094111;28;20117;-73
2021/10/07 04:01:50;;;;;;;1.73;0.75;;;;;;;14.01;83.49;99486.59;5093953;28;20036;-72
2021/10/07 04:04:21;;;;;;;2.08;1.00;;;;;;;14.00;83.99;99482.19;5094108;28;20038;-71
2021/10/07 04:06:47;;;;;;;2.47;0.80;;;;;;;13.96;84.17;99480.63;5093802;28;20090;-73
2021/10/07 04:09:16;;;;;;;3.78;1.30;;;;;;;13.92;84.94;99472.22;5093618;28;20028;-72
2021/10/07 04:11:44;;;;;;;4.25;1.05;;;;;;;13.92;84.58;99474.25;5093898;28;20039;-72
2021/10/07 04:14:13;;;;;;;2.67;0.90;;;;;;;13.77;83.72;99462.28;5093516;28;20028;-72
2021/10/07 04:16:41;;;;;;;3.85;0.95;;;;;;;13.94;83.75;99472.63;5093484;28;20052;-73
2021/10/07 04:19:13;;;;;;;1.45;0.80;;;;;;;13.95;83.49;99485.41;5094068;28;20422;-73
2021/10/07 04:21:39;;;;;;;1.48;0.60;;;;;;;13.94;82.51;99477.41;5093703;28;20060;-73
2021/10/07 04:24:05;;;;;;;2.00;0.93;;;;;;;14.03;81.81;99475.81;5093265;28;20052;-71
2021/10/07 04:26:32;;;;;;;0.73;0.63;;;;;;;14.00;79.31;99476.59;5093620;28;20028;-72
2021/10/07 04:29:03;;;;;;;2.45;1.25;;;;;;;14.03;81.49;99480.59;5076431;28;20497;-72
2021/10/07 04:31:30;;;;;;;2.03;0.70;;;;;;;13.89;79.95;99471.03;5092903;28;20425;-72
2021/10/07 04:37:02;;;;;;;3.08;0.90;;;;;;;13.85;82.68;99472.25;5090278;28;20040;-72
2021/10/07 04:39:30;;;;;;;2.00;1.27;;;;;;;13.87;84.14;99476.22;5093044;28;20020;-72
2021/10/07 04:41:59;;;;;;;4.22;1.85;;;;;;;14.01;84.22;99474.59;5093021;28;20032;-72
2021/10/07 04:44:27;;;;;;;3.17;1.25;;;;;;;13.96;84.40;99475.03;5093563;28;20085;-72
2021/10/07 04:46:56;;;;;;;4.05;1.13;;;;;;;14.04;84.68;99459.81;5093242;28;20054;-72
2021/10/07 04:49:25;;;;;;;1.73;1.00;;;;;;;13.84;81.90;99468.63;5092967;28;20032;-73
2021/10/07 04:51:53;;;;;;;2.65;0.95;;;;;;;14.01;77.26;99469.81;5093129;28;20028;-73
2021/10/07 04:54:42;;;;;;;3.72;1.05;;;;;;;14.02;77.84;99456.63;5092977;28;20122;-73
2021/10/07 04:57:07;;;;;;;3.25;1.05;;;;;;;13.99;79.72;99451.84;5093444;28;20124;-73
2021/10/07 04:59:36;;;;;;;7.32;1.17;;;;;;;14.14;81.13;99459.78;5092182;28;20520;-73
2021/10/07 05:02:07;;;;;;;2.17;1.00;;;;;;;14.08;81.56;99444.63;5093271;28;20363;-73
2021/10/07 05:04:33;;;;;;;2.08;1.10;;;;;;;14.24;82.51;99446.97;5093168;28;20424;-73
2021/10/07 05:06:58;;;;;;;1.90;0.82;;;;;;;14.20;82.59;99446.19;5092446;28;20044;-74
2021/10/07 05:09:26;;;;;;;2.47;0.98;;;;;;;14.00;80.96;99437.44;5092507;28;20028;-73
2021/10/07 05:11:54;;;;;;;5.40;1.05;;;;;;;14.15;79.91;99411.03;5092354;28;20032;-73
2021/10/07 05:14:26;;;;;;;4.78;1.15;;;;;;;14.12;79.04;99416.66;5092923;28;20086;-73
2021/10/07 05:16:54;;;;;;;6.63;1.38;;;;;;;14.08;78.79;99427.84;5093300;28;20036;-73
2021/10/07 05:19:22;;;;;;;2.75;1.10;;;;;;;14.17;80.54;99435.81;5092662;28;20118;-73
2021/10/07 05:21:50;;;;;;;1.48;0.95;;;;;;;14.22;81.55;99421.41;5092361;28;20089;-73
2021/10/07 05:24:16;;;;;;;2.75;2.05;;;;;;;14.30;80.53;99433.34;5093057;28;20083;-74
2021/10/07 05:26:44;;;;;;;2.13;1.15;;;;;;;14.31;79.09;99435.75;5092837;28;20471;-73
2021/10/07 05:29:10;;;;;;;4.15;1.27;;;;;;;14.02;78.09;99423.88;5093026;28;20031;-73
2021/10/07 05:31:41;;;;;;;2.83;1.10;;;;;;;14.07;79.25;99426.25;5093472;28;20029;-74
2021/10/07 05:34:10;;;;;;;3.55;1.10;;;;;;;14.01;79.61;99422.28;5093081;28;20047;-74
2021/10/07 05:36:38;;;;;;;4.13;1.13;;;;;;;14.07;81.04;99420.66;5092842;28;20039;-74
2021/10/07 05:39:06;;;;;;;2.83;1.83;;;;;;;14.16;81.53;99415.41;5092659;28;20024;-74
2021/10/07 05:41:35;;;;;;;4.78;2.47;;;;;;;14.23;81.88;99411.00;5092254;28;20032;-74
2021/10/07 05:44:09;;;;;;;6.82;3.50;;;;;;;14.40;81.81;99410.91;5092425;28;20028;-74
2021/10/07 05:46:38;;;;;;;3.83;1.35;;;;;;;14.41;79.43;99406.91;5092199;28;20023;-73
2021/10/07 05:49:06;;;;;;;2.75;1.05;;;;;;;14.52;79.35;99395.69;5092089;28;20090;-73
2021/10/07 05:51:35;;;;;;;3.20;1.50;;;;;;;14.72;78.50;99406.38;5091605;28;20116;-73
2021/10/07 05:54:03;;;;;;;2.50;1.85;;;;;;;14.92;79.44;99401.84;5091942;28;20480;-73
2021/10/07 05:56:32;;;;;;;4.10;1.83;;;;;;;14.99;79.65;99404.59;5092277;28;20035;-73
2021/10/07 05:59:00;;;;;;;2.60;1.50;;;;;;;15.06;79.71;99407.31;5091926;28;20028;-72
2021/10/07 06:01:26;;;;;;;4.32;1.65;;;;;;;15.08;80.65;99410.53;5091631;28;20475;-73
2021/10/07 06:03:51;;;;;;;3.60;1.40;;;;;;;15.14;80.43;99411.69;5091961;28;20041;-73
2021/10/07 06:06:20;;;;;;;4.25;1.50;;;;;;;15.78;78.37;99412.34;5091910;28;20051;-74
2021/10/07 06:08:46;;;;;;;3.08;1.35;;;;;;;15.99;76.65;99414.91;5095151;28;20030;-73
2021/10/07 06:11:14;;;;;;;3.13;1.35;;;;;;;15.78;75.18;99417.94;5099236;28;20032;-73
2021/10/07 06:13:42;;;;;;;3.13;1.30;;;;;;;15.60;75.70;99421.66;5099135;28;20026;-73
2021/10/07 06:16:11;;;;;;;2.15;1.05;;;;;;;15.42;76.64;99413.44;5099051;28;20032;-73
2021/10/07 06:18:37;;;;;;;5.97;1.77;;;;;;;15.28;77.98;99426.78;5098715;28;20028;-72
2021/10/07 06:21:03;;;;;;;4.35;1.70;;;;;;;15.31;79.17;99442.78;5098808;28;20032;-72
2021/10/07 06:23:29;;;;;;;3.50;2.03;;;;;;;15.20;80.04;99440.84;5098901;28;20096;-72
2021/10/07 06:26:00;;;;;;;5.60;1.38;;;;;;;15.00;77.98;99441.78;5098682;28;20477;-72
2021/10/07 06:28:28;;;;;;;3.75;1.83;;;;;;;14.96;79.06;99439.00;5117006;28;20055;-72
2021/10/07 06:30:54;;;;;;;4.70;1.20;;;;;;;14.95;79.42;99434.63;5098592;28;20028;-72
2021/10/07 06:33:23;;;;;;;4.05;1.30;;;;;;;14.94;80.76;99435.84;5098720;28;20085;-72
2021/10/07 06:35:48;;;;;;;5.25;1.13;;;;;;;14.99;80.94;99440.22;5098731;28;20039;-72
2021/10/07 06:38:16;;;;;;;2.47;1.20;;;;;;;14.97;81.71;99434.19;5098877;28;20023;-73
2021/10/07 06:40:48;;;;;;;2.00;1.20;;;;;;;14.98;81.83;99438.63;5099142;28;20027;-73
2021/10/07 06:43:13;;;;;;;3.10;1.38;;;;;;;14.95;82.04;99440.22;5099184;28;20115;-72
2021/10/07 06:45:45;;;;;;;3.38;1.17;;;;;;;14.97;82.00;99446.22;5099028;28;20071;-72
2021/10/07 06:48:10;;;;;;;4.05;1.50;;;;;;;14.97;82.39;99442.59;5116704;28;20422;-72
2021/10/07 06:50:40;;;;;;;4.18;1.40;;;;;;;14.97;81.64;99454.63;5098393;28;20106;-72
2021/10/07 06:53:12;;;;;;;9.80;6.88;;;;;;;15.04;82.91;99448.19;5116240;28;20359;-73
2021/10/07 06:55:44;;;;;;;6.43;1.85;;;;;;;15.02;81.88;99459.81;5116394;28;20027;-72
2021/10/07 06:58:09;;;;;;;2.92;1.15;;;;;;;14.88;80.66;99463.47;5098219;28;20127;-72
2021/10/07 07:00:40;;;;;;;3.63;1.50;;;;;;;14.98;81.67;99450.63;5098014;28;20040;-72
2021/10/07 07:03:08;;;;;;;2.03;1.33;;;;;;;15.04;81.70;99446.16;5098276;28;20558;-72
2021/10/07 07:05:39;;;;;;;4.35;1.55;;;;;;;15.10;82.09;99441.72;5098053;28;20071;-72
2021/10/07 07:08:07;;;;;;;2.55;1.00;;;;;;;15.16;81.86;99440.06;5094802;28;20490;-72
2021/10/07 07:10:39;;;;;;;0.80;0.77;;;;;;;15.10;79.40;99432.53;5094180;28;20032;-72
2021/10/07 07:13:06;;;;;;;2.33;1.63;;;;;;;15.15;77.51;99432.88;5095026;28;20058;-71
2021/10/07 07:15:33;;;;;;;1.83;1.20;;;;;;;15.30;76.47;99438.38;5094348;28;20039;-71
2021/10/07 07:18:04;;;;;;;2.95;1.20;;;;;;;15.12;77.16;99433.69;5094726;28;20028;-71
2021/10/07 07:20:33;;;;;;;4.45;1.15;;;;;;;15.11;77.28;99429.31;5094323;28;20020;-72
2021/10/07 07:23:01;;;;;;;3.00;1.23;;;;;;;15.14;77.52;99431.28;5094197;28;20032;-72
2021/10/07 07:25:33;;;;;;;1.38;1.00;;;;;;;15.29;78.97;99423.56;5095073;28;20028;-72
2021/10/07 07:28:01;;;;;;;2.75;1.88;;;;;;;15.31;75.79;99426.75;5095148;28;20378;-71
2021/10/07 07:30:29;;;;;;;4.68;1.77;;;;;;;15.33;76.87;99426.31;5094430;28;20031;-72
2021/10/07 07:32:58;;;;;;;2.63;0.93;;;;;;;15.24;76.13;99414.81;5094630;28;20389;-73
2021/10/07 07:35:32;;;;;;;2.20;1.13;;;;;;;15.31;76.55;99417.53;5094874;28;20032;-72
2021/10/07 07:38:04;;;;;;;2.42;1.08;;;;;;;15.35;75.73;99413.50;5095235;28;20034;-73
2021/10/07 07:40:30;;;;;;;3.53;1.30;;;;;;;15.40;75.83;99415.06;5094224;28;20028;-73
2021/10/07 07:42:57;;;;;;;1.90;0.90;;;;;;;15.35;75.72;99415.50;5094352;28;20028;-73
2021/10/07 07:45:26;;;;;;;5.13;1.35;;;;;;;15.34;75.77;99411.09;5093976;28;20028;-73
2021/10/07 07:47:55;;;;;;;2.28;1.20;;;;;;;15.30;75.38;99410.34;5095157;28;20097;-73
2021/10/07 07:50:24;;;;;;;4.57;1.05;;;;;;;15.13;76.76;99412.09;5093827;28;20077;-73
2021/10/07 07:52:51;;;;;;;3.05;1.10;;;;;;;14.96;76.87;99418.59;5094919;28;20424;-73
2021/10/07 07:55:23;;;;;;;2.65;1.20;;;;;;;14.85;77.29;99413.09;5095537;28;20039;-74
2021/10/07 07:57:55;;;;;;;2.95;1.30;;;;;;;14.89;78.35;99419.47;5094214;28;20036;-74
2021/10/07 08:00:23;;;;;;;5.80;1.23;;;;;;;14.91;78.46;99419.84;5094078;28;20027;-73
2021/10/07 08:02:54;;;;;;;3.55;1.48;;;;;;;14.91;78.40;99417.03;5094212;28;20050;-72
2021/10/07 08:05:23;;;;;;;4.35;1.45;;;;;;;14.78;78.00;99407.53;5094864;28;20047;-73
2021/10/07 08:07:48;;;;;;;1.75;0.90;;;;;;;14.81;77.82;99401.13;5094034;28;20055;-74
2021/10/07 08:10:18;;;;;;;4.03;1.25;;;;;;;14.84;78.77;99420.69;5094066;28;20107;-73
2021/10/07 08:12:55;;;;;;;3.13;1.40;;;;;;;15.15;78.26;99416.06;5094251;28;20036;-73
2021/10/07 08:15:27;;;;;;;4.03;1.20;;;;;;;15.53;74.90;99412.53;5094745;28;20024;-73
2021/10/07 08:17:53;;;;;;;2.70;1.17;;;;;;;15.65;74.47;99401.63;5094916;28;20058;-73
2021/10/07 08:20:24;;;;;;;2.22;1.23;;;;;;;16.11;73.45;99405.94;5093867;28;20522;-73
2021/10/07 08:22:53;;;;;;;3.05;1.05;;;;;;;16.26;72.65;99397.34;5093063;28;20024;-74
2021/10/07 08:25:21;;;;;;;2.78;1.10;;;;;;;16.44;71.57;99406.31;5093608;28;20347;-73
2021/10/07 08:27:50;;;;;;;4.30;1.63;;;;;;;16.65;71.32;99394.78;5092932;28;20035;-74
2021/10/07 08:30:19;;;;;;;2.47;1.40;;;;;;;17.12;70.17;99394.13;5093053;28;20023;-73
2021/10/07 08:32:50;;;;;;;2.17;1.25;;;;;;;16.97;69.27;99391.53;5091927;28;20032;-73
2021/10/07 08:35:21;;;;;;;1.85;0.90;;;;;;;17.48;67.80;99394.31;5092825;28;20052;-72
2021/10/07 08:37:47;;;;;;;1.83;1.10;;;;;;;18.27;65.96;99391.59;5092706;28;20123;-71
2021/10/07 08:40:18;;;;;;;6.30;1.65;;;;;;;18.54;62.38;99396.28;5092399;28;20074;-72
2021/10/07 08:42:44;;;;;;;1.27;1.00;;;;;;;18.81;60.79;99388.44;5093039;28;20474;-72
2021/10/07 08:45:13;;;;;;;3.60;1.20;;;;;;;18.51;61.99;99394.31;5092701;28;20067;-74
2021/10/07 08:47:42;;;;;;;5.18;1.10;;;;;;;18.74;63.64;99380.13;5092771;28;20036;-73
2021/10/07 08:50:09;;;;;;;2.08;0.95;;;;;;;18.86;60.75;99386.31;5092612;28;20145;-72
2021/10/07 08:52:35;;;;;;;3.50;1.15;;;;;;;19.36;59.28;99375.38;5092965;28;20032;-73
2021/10/07 08:55:01;;;;;;;1.55;1.33;;;;;;;20.44;55.68;99375.25;5092923;28;20377;-71
2021/10/07 08:57:30;;;;;;;2.90;1.08;;;;;;;21.11;54.19;99369.53;5092295;28;20038;-71
2021/10/07 08:59:58;;;;;;;3.10;1.40;;;;;;;21.02;52.92;99366.59;5092406;28;20024;-71
2021/10/07 09:02:29;;;;;;;2.20;1.10;;;;;;;21.35;52.82;99372.78;5092494;28;20032;-71
2021/10/07 09:05:15;;;;;;;1.25;0.70;;;;;;;21.36;52.59;99366.69;5093558;28;20017;-71
2021/10/07 09:08:04;;;;;;;0.68;0.50;;;;;;;22.09;50.76;99375.00;5092149;28;20056;-72
2021/10/07 09:10:55;;;;;;;2.22;0.60;;;;;;;22.29;50.48;99377.53;5093693;28;20055;-71
2021/10/07 09:13:25;;;;;;;1.95;1.25;;;;;;;23.13;48.21;99382.38;5091780;28;20032;-72
2021/10/07 09:15:59;;;;;;;1.65;0.70;;;;;;;23.26;46.54;99375.31;5091871;28;20035;-74
2021/10/07 09:18:29;;;;;;;1.35;0.65;;;;;;;23.12;47.11;99381.59;5091968;28;20034;-72
2021/10/07 09:21:01;;;;;;;2.03;0.90;;;;;;;23.34;46.23;99386.38;5092036;28;20028;-72
2021/10/07 09:23:32;;;;;;;1.58;0.80;;;;;;;22.28;48.72;99381.63;5093325;28;20028;-72
2021/10/07 09:26:11;;;;;;;0.85;0.70;;;;;;;22.11;49.02;99374.59;5091353;28;20051;-72
2021/10/07 09:28:56;;;;;;;3.22;0.90;;;;;;;21.56;50.30;99366.41;5092148;28;20035;-72
2021/10/07 09:31:33;;;;;;;1.08;0.70;;;;;;;21.54;49.43;99368.91;5092832;28;20047;-71
2021/10/07 09:34:06;;;;;;;2.17;1.35;;;;;;;21.55;51.28;99375.34;5092369;28;20089;-72
2021/10/07 09:36:35;;;;;;;2.53;0.80;;;;;;;20.95;53.33;99369.66;5075387;28;20032;-74
2021/10/07 09:39:03;;;;;;;1.25;0.73;;;;;;;21.22;52.29;99378.47;5092270;28;20105;-74
2021/10/07 09:41:33;;;;;;;1.73;0.90;;;;;;;20.87;53.20;99372.69;5092060;28;20028;-74
2021/10/07 09:44:04;;;;;;;2.30;0.55;;;;;;;20.63;53.52;99385.59;5092407;28;20035;-76
2021/10/07 09:46:44;;;;;;;0.40;0.40;;;;;;;21.29;51.75;99385.91;5095836;28;20024;-74
2021/10/07 09:49:16;;;;;;;1.42;0.60;;;;;;;20.97;49.93;99396.22;5095943;28;20028;-74
2021/10/07 09:51:48;;;;;;;0.77;0.57;;;;;;;21.69;49.83;99386.19;5096929;28;20047;-74
2021/10/07 09:54:27;;;;;;;1.15;0.65;;;;;;;21.82;49.19;99384.09;5096187;28;20393;-74
2021/10/07 09:57:04;;;;;;;0.80;0.73;;;;;;;22.58;47.71;99377.22;5095941;28;20034;-74
2021/10/07 09:59:32;;;;;;;0.82;0.50;;;;;;;23.07;46.07;99381.44;5095889;28;20028;-74
2021/10/07 10:01:58;;;;;;;1.40;0.40;;;;;;;22.50;45.98;99381.59;5095752;28;20113;-74
2021/10/07 10:04:28;;;;;;;1.02;0.70;;;;;;;22.72;46.37;99378.72;5096119;28;20032;-74
2021/10/07 10:06:56;;;;;;;2.92;1.10;;;;;;;22.89;46.29;99373.63;5095618;28;20074;-75
2021/10/07 10:09:26;;;;;;;1.17;0.88;;;;;;;23.46;44.57;99372.06;5095631;28;20024;-75
2021/10/07 10:11:56;;;;;;;0.80;0.57;;;;;;;23.06;44.64;99380.63;5095597;28;20547;-75
2021/10/07 10:14:23;;;;;;;0.93;0.57;;;;;;;23.45;43.75;99386.72;5095733;28;20481;-75
2021/10/07 10:16:51;;;;;;;2.45;0.82;;;;;;;23.06;45.56;99386.28;5095962;28;20054;-74
2021/10/07 10:19:20;;;;;;;0.60;0.50;;;;;;;22.96;45.28;99391.16;5095571;28;20031;-74
2021/10/07 10:21:49;;;;;;;0.60;0.57;;;;;;;22.55;45.79;99383.06;5095152;28;20111;-74
2021/10/07 10:24:16;;;;;;;0.88;0.50;;;;;;;23.06;45.30;99389.13;5095465;28;20028;-75
2021/10/07 10:26:58;;;;;;;2.13;0.90;;;;;;;23.23;44.31;99381.94;5096173;28;20093;-74
2021/10/07 10:29:28;;;;;;;1.15;0.60;;;;;;;22.97;45.16;99389.91;5094878;28;20032;-75
2021/10/07 10:31:57;;;;;;;2.55;0.63;;;;;;;23.23;44.34;99386.84;5095412;28;20117;-75
2021/10/07 10:34:26;;;;;;;1.52;0.60;;;;;;;23.57;43.50;99376.47;5095065;28;20028;-74
2021/10/07 10:36:52;;;;;;;1.63;0.73;;;;;;;23.75;41.45;99382.97;5095072;28;20036;-75
2021/10/07 10:39:29;;;;;;;1.00;0.50;;;;;;;25.10;40.53;99374.38;5094900;28;20031;-74
2021/10/07 10:42:09;;;;;;;1.35;0.70;;;;;;;25.55;39.44;99365.56;5095147;28;20032;-76
2021/10/07 10:44:48;;;;;;;1.98;0.45;;;;;;;25.57;38.56;99357.31;5096182;28;20028;-75
2021/10/07 10:47:16;;;;;;;1.50;0.70;;;;;;;25.14;39.78;99352.22;5095680;28;20118;-77
2021/10/07 10:49:51;;;;;;;1.65;0.60;;;;;;;24.91;39.99;99354.50;5096370;28;20030;-76
2021/10/07 10:52:57;;;;;;;1.60;1.08;;;;;;;23.74;40.55;99346.53;5094402;28;20039;-76
2021/10/07 10:55:26;;;;;;;1.17;0.55;;;;;;;23.38;41.67;99348.06;5083051;28;20032;-76
2021/10/07 10:58:11;;;;;;;2.50;0.70;;;;;;;23.43;42.98;99344.59;5095150;28;20425;-76
2021/10/07 11:00:42;;;;;;;1.40;0.60;;;;;;;23.20;42.44;99331.00;5094211;28;20046;-76
2021/10/07 11:03:08;;;;;;;1.50;0.65;;;;;;;22.47;43.78;99337.97;5095225;28;20485;-76
2021/10/07 11:05:38;;;;;;;2.33;0.68;;;;;;;21.69;45.69;99340.91;5095114;28;20081;-76
2021/10/07 11:08:18;;;;;;;0.95;0.60;;;;;;;21.70;46.49;99342.47;5094288;28;20058;-76
2021/10/07 11:10:51;;;;;;;1.55;0.80;;;;;;;21.65;46.50;99345.88;5094961;28;20097;-76
2021/10/07 11:13:25;;;;;;;4.38;0.85;;;;;;;22.07;45.25;99339.91;5096131;28;20466;-76
2021/10/07 11:15:59;;;;;;;0.90;0.82;;;;;;;21.44;46.02;99336.09;5095589;28;20017;-76
2021/10/07 11:18:28;;;;;;;3.13;1.02;;;;;;;20.88;48.43;99331.13;5095628;28;20028;-76
2021/10/07 11:21:02;;;;;;;1.23;0.70;;;;;;;20.91;48.77;99330.19;5094367;28;20067;-76
2021/10/07 11:23:31;;;;;;;1.48;0.80;;;;;;;20.63;49.96;99329.09;5095307;28;20054;-75
2021/10/07 11:26:07;;;;;;;1.63;0.93;;;;;;;20.76;50.58;99337.53;5094508;28;20032;-76
2021/10/07 11:28:36;;;;;;;1.38;0.63;;;;;;;20.25;51.75;99343.94;5093718;28;20411;-76
2021/10/07 11:31:12;;;;;;;4.07;0.90;;;;;;;20.14;52.05;99338.59;5093997;28;20024;-76
2021/10/07 11:33:41;;;;;;;3.60;1.13;;;;;;;20.09;52.92;99335.53;5095386;28;20107;-75
2021/10/07 11:36:15;;;;;;;1.73;0.65;;;;;;;20.02;53.31;99333.69;5094283;28;20424;-76
2021/10/07 11:38:41;;;;;;;;;;;;;;;20.07;52.68;99338.78;5094945;28;20034;-75
2021/10/07 11:41:11;;;;;;;1.10;0.73;;;;;;;20.38;51.09;99341.91;5094098;28;19907;-75
2021/10/07 11:43:37;;;;;;;1.45;0.77;;;;;;;20.47;48.22;99348.97;5094093;28;20066;-75
2021/10/07 11:46:12;;;;;;;1.88;1.20;;;;;;;20.56;48.00;99337.75;5094020;28;20028;-76
2021/10/07 11:48:50;;;;;;;0.63;0.50;;;;;;;20.67;46.90;99346.72;5093946;28;20474;-75
2021/10/07 11:51:29;;;;;;;0.90;0.68;;;;;;;21.07;46.54;99352.69;5089163;28;20543;-76
2021/10/07 11:54:02;;;;;;;4.13;0.82;;;;;;;21.33;45.35;99344.97;5091233;28;20036;-76